Time;durP1;ratioP1;P1;durP2;ratioP2;P2;SDS_P1;SDS_P2;PMS_P1;PMS_P2;Temp;Humidity;BMP_temperature;BMP_pressure;BME280_temperature;BME280_humidity;BME280_pressure;Samples;Min_cycle;Max_cycle;Signal;HPM_P1;HPM_P2
2022/10/25 00:01:25;;;;;;;29.75;10.02;;;11.50;99.90;;;;;;5081769;28;20040;-28
2022/10/25 00:03:51;;;;;;;26.10;9.52;;;11.50;99.90;;;;;;5081892;28;20049;-30
2022/10/25 00:06:17;;;;;;;34.58;10.93;;;11.50;99.90;;;;;;5077465;28;20050;-29
2022/10/25 00:08:42;;;;;;;22.92;10.05;;;11.50;99.90;;;;;;5054431;28;20119;-29
2022/10/25 00:11:14;;;;;;;23.92;9.23;;;11.60;99.90;;;;;;5090648;28;20055;-28
2022/10/25 00:13:40;;;;;;;29.48;11.75;;;11.50;99.90;;;;;;5073443;28;20546;-29
2022/10/25 00:16:13;;;;;;;22.67;10.15;;;11.60;99.90;;;;;;5083842;28;20123;-29
2022/10/25 00:18:39;;;;;;;29.23;11.90;;;11.50;99.90;;;;;;5084683;28;20036;-29
2022/10/25 00:21:05;;;;;;;29.80;12.50;;;11.50;99.90;;;;;;5074712;28;20040;-29
2022/10/25 00:23:30;;;;;;;32.92;11.40;;;11.50;99.90;;;;;;5075693;28;20109;-29
2022/10/25 00:26:01;;;;;;;26.02;10.98;;;11.50;99.90;;;;;;5076779;28;20115;-29
2022/10/25 00:28:27;;;;;;;31.17;12.70;;;11.50;99.90;;;;;;5075146;28;20044;-30
2022/10/25 00:31:00;;;;;;;48.47;15.98;;;11.50;99.90;;;;;;5080165;28;20051;-30
2022/10/25 00:33:31;;;;;;;27.92;13.48;;;11.50;99.90;;;;;;5075374;28;20096;-29
2022/10/25 00:36:10;;;;;;;34.45;14.15;;;11.50;99.90;;;;;;5074548;28;20044;-28
2022/10/25 00:38:37;;;;;;;36.05;13.38;;;11.60;99.90;;;;;;5072076;28;20060;-29
2022/10/25 00:41:06;;;;;;;29.85;13.00;;;11.50;99.90;;;;;;5085391;28;20052;-28
2022/10/25 00:43:53;;;;;;;37.95;12.75;;;11.50;99.90;;;;;;5078553;28;20395;-29
2022/10/25 00:46:27;;;;;;;30.58;13.95;;;11.50;99.90;;;;;;5082520;28;20036;-29
2022/10/25 00:49:09;;;;;;;;;;;11.50;99.90;;;;;;5085269;28;20051;-28
2022/10/25 00:51:45;;;;;;;32.00;13.90;;;11.50;99.90;;;;;;5089039;28;19920;-28
2022/10/25 00:54:15;;;;;;;29.17;13.20;;;11.40;99.90;;;;;;5088923;28;20048;-29
2022/10/25 00:56:44;;;;;;;31.73;15.00;;;11.40;99.90;;;;;;5082549;28;20046;-29
2022/10/25 00:59:13;;;;;;;31.63;14.50;;;11.40;99.90;;;;;;5087641;28;20379;-28
2022/10/25 01:01:40;;;;;;;37.95;15.88;;;11.40;99.90;;;;;;5078180;28;20043;-29
2022/10/25 01:04:11;;;;;;;35.97;17.30;;;11.50;99.90;;;;;;5084467;28;20045;-28
2022/10/25 01:06:39;;;;;;;39.35;16.85;;;11.50;99.90;;;;;;5093024;28;20054;-29
2022/10/25 01:09:08;;;;;;;40.85;16.25;;;11.50;99.90;;;;;;5085837;28;20043;-28
2022/10/25 01:11:36;;;;;;;40.67;17.15;;;11.60;99.90;;;;;;5082900;28;20052;-29
2022/10/25 01:14:07;;;;;;;47.58;18.65;;;11.70;99.90;;;;;;5084531;28;20040;-29
2022/10/25 01:17:05;;;;;;;47.28;18.30;;;11.60;99.90;;;;;;5079765;28;20041;-29
2022/10/25 01:19:45;;;;;;;44.53;17.58;;;11.70;99.90;;;;;;5082350;28;20048;-29
2022/10/25 01:22:26;;;;;;;34.45;15.88;;;11.80;99.90;;;;;;5082996;28;20075;-28
2022/10/25 01:25:07;;;;;;;38.20;16.98;;;11.90;99.90;;;;;;5083897;28;20074;-29
2022/10/25 01:28:03;;;;;;;42.17;16.77;;;11.90;99.90;;;;;;5078621;28;20378;-29
2022/10/25 01:30:59;;;;;;;42.90;16.35;;;11.80;99.90;;;;;;5082939;28;20402;-30
2022/10/25 01:33:39;;;;;;;39.95;16.08;;;11.90;99.90;;;;;;5076412;28;20098;-29
2022/10/25 01:36:14;;;;;;;33.95;16.05;;;12.00;99.90;;;;;;5075458;28;20056;-30
2022/10/25 01:38:51;;;;;;;34.55;16.55;;;12.00;99.90;;;;;;5075221;28;20561;-29
2022/10/25 01:41:41;;;;;;;40.15;16.73;;;12.00;99.90;;;;;;5081384;28;20101;-29
2022/10/25 01:44:12;;;;;;;41.47;17.08;;;12.00;99.90;;;;;;5082619;28;20054;-29
2022/10/25 01:46:44;;;;;;;26.05;12.98;;;12.00;99.90;;;;;;5085314;28;20056;-29
2022/10/25 01:49:22;;;;;;;49.42;18.27;;;12.00;99.90;;;;;;5078285;28;20119;-29
2022/10/25 01:51:48;;;;;;;52.85;15.70;;;12.00;99.90;;;;;;5089236;28;20382;-30
2022/10/25 01:54:26;;;;;;;22.80;13.52;;;12.00;99.90;;;;;;5063599;28;20062;-29
2022/10/25 01:57:47;;;;;;;26.45;13.65;;;12.10;99.90;;;;;;5082313;28;20098;-29
2022/10/25 02:00:14;;;;;;;29.88;12.77;;;12.10;99.90;;;;;;5077985;28;20040;-29
2022/10/25 02:02:52;;;;;;;23.08;12.00;;;12.10;99.90;;;;;;5078774;28;20512;-29
2022/10/25 02:05:36;;;;;;;21.55;12.32;;;12.20;99.90;;;;;;5085525;28;20555;-29
2022/10/25 02:08:20;;;;;;;34.10;13.95;;;12.30;99.90;;;;;;5086661;28;20073;-29
2022/10/25 02:11:04;;;;;;;23.70;12.10;;;12.40;99.90;;;;;;5073736;28;20044;-29
2022/10/25 02:13:35;;;;;;;27.33;12.68;;;12.40;99.90;;;;;;5087931;28;20063;-29
2022/10/25 02:16:24;;;;;;;28.17;12.10;;;12.40;99.90;;;;;;5079311;28;20087;-29
2022/10/25 02:19:02;;;;;;;26.63;12.63;;;12.40;99.90;;;;;;5089257;28;20048;-29
2022/10/25 02:21:38;;;;;;;27.65;14.23;;;12.30;99.90;;;;;;5084946;28;20052;-30
2022/10/25 02:24:19;;;;;;;26.30;13.15;;;12.30;99.90;;;;;;5080565;28;20461;-29
2022/10/25 02:26:51;;;;;;;24.75;13.60;;;12.30;99.90;;;;;;5077812;28;20055;-29
2022/10/25 02:29:27;;;;;;;26.42;11.70;;;12.30;99.90;;;;;;5062033;28;20206;-28
2022/10/25 02:31:57;;;;;;;27.45;13.40;;;12.20;99.90;;;;;;5073997;28;20044;-28
2022/10/25 02:34:27;;;;;;;31.08;13.52;;;12.20;99.90;;;;;;5078790;28;20047;-29
2022/10/25 02:36:58;;;;;;;41.53;14.65;;;12.20;99.90;;;;;;5076381;28;20090;-29
2022/10/25 02:39:29;;;;;;;30.45;14.55;;;12.20;99.90;;;;;;5083111;28;20425;-28
2022/10/25 02:41:57;;;;;;;30.60;15.07;;;12.20;99.90;;;;;;5077933;28;20078;-29
2022/10/25 02:44:30;;;;;;;35.72;14.77;;;12.30;99.90;;;;;;5074469;28;20059;-29
2022/10/25 02:47:01;;;;;;;30.00;12.02;;;12.40;99.90;;;;;;5078122;28;20040;-28
2022/10/25 02:49:27;;;;;;;26.25;12.50;;;12.40;99.90;;;;;;5084512;28;20044;-30
2022/10/25 02:51:58;;;;;;;40.17;15.02;;;12.40;99.90;;;;;;5084861;28;20383;-29
2022/10/25 02:54:24;;;;;;;34.53;13.45;;;12.50;99.90;;;;;;5076447;28;20126;-29
2022/10/25 02:56:52;;;;;;;23.73;13.77;;;12.50;99.90;;;;;;5084281;28;20182;-29
2022/10/25 02:59:20;;;;;;;33.53;12.32;;;12.50;99.90;;;;;;5076955;28;20418;-28
2022/10/25 03:01:46;;;;;;;28.10;12.98;;;12.40;99.90;;;;;;5076647;28;20050;-28
2022/10/25 03:04:11;;;;;;;33.28;12.77;;;12.50;99.90;;;;;;5083469;28;20047;-26
2022/10/25 03:06:37;;;;;;;28.85;12.82;;;12.50;99.90;;;;;;5075065;28;20044;-27
2022/10/25 03:09:03;;;;;;;32.67;12.52;;;12.50;99.90;;;;;;5081540;28;20131;-26
2022/10/25 03:11:31;;;;;;;25.80;10.07;;;12.50;99.90;;;;;;5083365;28;20044;-26
2022/10/25 03:13:57;;;;;;;25.60;12.15;;;12.40;99.90;;;;;;5074293;28;20141;-27
2022/10/25 03:16:22;;;;;;;29.65;11.55;;;12.30;99.90;;;;;;5076718;28;20047;-26
2022/10/25 03:18:48;;;;;;;37.88;14.18;;;12.30;99.90;;;;;;5078328;28;20122;-26
2022/10/25 03:21:14;;;;;;;24.65;11.65;;;12.20;99.90;;;;;;5086424;28;20123;-26
2022/10/25 03:23:39;;;;;;;41.95;13.73;;;12.30;99.90;;;;;;5084637;28;20073;-26
2022/10/25 03:26:05;;;;;;;38.63;13.85;;;12.20;99.90;;;;;;5079822;28;20044;-26
2022/10/25 03:28:31;;;;;;;23.58;12.57;;;12.30;99.90;;;;;;5076938;28;20473;-26
2022/10/25 03:30:58;;;;;;;30.92;13.27;;;12.20;99.90;;;;;;5076171;28;20066;-26
2022/10/25 03:33:25;;;;;;;34.78;13.52;;;12.30;99.90;;;;;;5081148;28;20052;-26
2022/10/25 03:35:54;;;;;;;26.60;11.65;;;12.30;99.90;;;;;;5084629;28;20490;-26
2022/10/25 03:38:21;;;;;;;44.58;15.07;;;12.20;99.90;;;;;;5076392;28;20112;-28
2022/10/25 03:40:46;;;;;;;30.30;12.48;;;12.10;99.90;;;;;;5076884;28;20172;-27
2022/10/25 03:43:12;;;;;;;32.20;11.93;;;12.10;99.90;;;;;;5079245;28;20115;-26
2022/10/25 03:45:38;;;;;;;44.10;15.82;;;12.10;99.90;;;;;;5076889;28;20055;-26
2022/10/25 03:48:04;;;;;;;40.80;13.25;;;12.20;99.90;;;;;;5080875;28;20040;-26
2022/10/25 03:50:30;;;;;;;35.53;14.18;;;12.00;99.90;;;;;;5082080;28;20080;-26
2022/10/25 03:52:55;;;;;;;40.55;13.75;;;12.00;99.90;;;;;;5081068;28;20076;-26
2022/10/25 03:55:21;;;;;;;44.47;14.30;;;11.90;99.90;;;;;;5076418;28;20115;-28
2022/10/25 03:57:47;;;;;;;30.05;11.60;;;12.00;99.90;;;;;;5075393;28;20447;-26
2022/10/25 04:00:13;;;;;;;26.92;11.32;;;12.00;99.90;;;;;;5082281;28;20134;-26
2022/10/25 04:02:39;;;;;;;31.88;11.80;;;11.90;99.90;;;;;;5097369;28;20072;-26
2022/10/25 04:05:05;;;;;;;29.42;11.00;;;11.90;99.90;;;;;;5085902;28;20140;-26
2022/10/25 04:07:31;;;;;;;47.22;14.63;;;12.00;99.90;;;;;;5075024;28;20471;-26
2022/10/25 04:09:56;;;;;;;42.22;13.93;;;12.00;99.90;;;;;;5081760;28;20052;-26
2022/10/25 04:12:22;;;;;;;36.70;15.15;;;11.90;99.90;;;;;;5076146;28;20049;-26
2022/10/25 04:14:48;;;;;;;39.80;13.82;;;12.00;99.90;;;;;;5078809;28;20185;-27
2022/10/25 04:17:16;;;;;;;38.50;14.20;;;12.00;99.90;;;;;;5075863;28;20162;-26
2022/10/25 04:19:41;;;;;;;46.50;15.63;;;12.00;99.90;;;;;;5076714;28;20040;-27
2022/10/25 04:22:07;;;;;;;43.67;14.90;;;12.00;99.90;;;;;;5077350;28;20398;-27
2022/10/25 04:24:33;;;;;;;31.30;13.48;;;11.90;99.90;;;;;;5088324;28;20047;-26
2022/10/25 04:26:58;;;;;;;38.88;14.50;;;11.90;99.90;;;;;;5073885;28;20074;-26
2022/10/25 04:29:24;;;;;;;37.00;13.85;;;12.10;99.90;;;;;;5076510;28;20050;-26
2022/10/25 04:31:50;;;;;;;39.95;14.77;;;12.00;99.90;;;;;;5072538;28;20608;-26
2022/10/25 04:34:16;;;;;;;45.08;16.30;;;11.80;99.90;;;;;;5084209;28;20035;-26
2022/10/25 04:36:41;;;;;;;43.28;15.52;;;11.80;99.90;;;;;;5060562;28;20045;-26
2022/10/25 04:39:07;;;;;;;30.92;12.25;;;12.00;99.90;;;;;;5077714;28;20063;-26
2022/10/25 04:41:33;;;;;;;31.35;13.90;;;12.00;99.90;;;;;;5079300;28;20098;-26
2022/10/25 04:43:58;;;;;;;50.58;15.05;;;11.90;99.90;;;;;;5077896;28;20048;-26
2022/10/25 04:46:24;;;;;;;33.67;14.07;;;11.90;99.90;;;;;;5080889;28;20394;-27
2022/10/25 04:48:50;;;;;;;30.70;13.98;;;11.90;99.90;;;;;;5077503;28;20043;-27
2022/10/25 04:51:15;;;;;;;34.10;12.00;;;11.90;99.90;;;;;;5063723;28;20044;-27
2022/10/25 04:53:41;;;;;;;34.58;13.27;;;11.80;99.90;;;;;;5065452;28;20048;-26
2022/10/25 04:56:09;;;;;;;34.00;12.05;;;11.90;99.90;;;;;;5078785;28;20051;-26
2022/10/25 04:58:36;;;;;;;44.78;12.70;;;11.90;99.90;;;;;;5073635;28;20039;-26
2022/10/25 05:01:05;;;;;;;38.33;13.20;;;11.80;99.90;;;;;;5077604;28;20044;-26
2022/10/25 05:03:31;;;;;;;39.15;14.20;;;11.80;99.90;;;;;;5082067;28;20044;-26
2022/10/25 05:06:24;;;;;;;36.42;12.82;;;11.90;99.90;;;;;;5087476;28;20044;-28
2022/10/25 05:08:51;;;;;;;30.73;11.65;;;11.80;99.90;;;;;;5041800;28;20482;-26
2022/10/25 05:11:20;;;;;;;33.42;10.18;;;11.70;99.90;;;;;;5074800;28;20044;-26
2022/10/25 05:13:46;;;;;;;34.60;12.00;;;11.60;99.90;;;;;;5057925;28;20386;-26
2022/10/25 05:16:20;;;;;;;30.88;10.93;;;11.60;99.90;;;;;;5075795;28;20072;-26
2022/10/25 05:18:47;;;;;;;50.05;12.95;;;11.70;99.90;;;;;;5076934;28;20443;-26
2022/10/25 05:21:15;;;;;;;46.95;12.85;;;11.70;99.90;;;;;;5075773;28;20127;-26
2022/10/25 05:23:41;;;;;;;38.33;12.77;;;11.70;99.90;;;;;;5075873;28;20044;-27
2022/10/25 05:26:16;;;;;;;29.75;10.73;;;11.60;99.90;;;;;;5075742;28;20169;-26
2022/10/25 05:28:43;;;;;;;48.40;12.90;;;11.50;99.90;;;;;;5073403;28;20477;-26
2022/10/25 05:31:29;;;;;;;39.72;13.70;;;11.60;99.90;;;;;;5076623;28;20036;-27
2022/10/25 05:33:57;;;;;;;29.83;13.43;;;11.80;99.90;;;;;;5078662;28;20091;-26
2022/10/25 05:36:24;;;;;;;48.67;16.10;;;11.70;99.90;;;;;;5076953;28;20068;-26
2022/10/25 05:38:50;;;;;;;37.65;15.07;;;11.70;99.90;;;;;;5077271;28;20053;-26
2022/10/25 05:41:17;;;;;;;50.53;16.00;;;11.90;99.90;;;;;;5059999;28;20054;-26
2022/10/25 05:43:44;;;;;;;31.27;14.13;;;11.80;99.90;;;;;;5086222;28;20036;-26
2022/10/25 05:46:15;;;;;;;37.17;15.02;;;11.60;99.90;;;;;;5080407;28;20127;-27
2022/10/25 05:48:42;;;;;;;43.10;16.30;;;11.70;99.90;;;;;;5089932;28;20032;-26
2022/10/25 05:51:15;;;;;;;48.25;18.27;;;12.00;99.90;;;;;;5085120;28;20453;-27
2022/10/25 05:53:42;;;;;;;47.08;17.35;;;11.90;99.90;;;;;;5083783;28;20517;-26
2022/10/25 05:56:08;;;;;;;48.35;18.45;;;11.90;99.90;;;;;;5069685;28;20055;-26
2022/10/25 05:58:33;;;;;;;60.17;20.45;;;11.90;99.90;;;;;;5088358;28;20040;-27
2022/10/25 06:00:59;;;;;;;38.47;15.18;;;12.00;99.90;;;;;;5076907;28;20123;-26
2022/10/25 06:03:25;;;;;;;55.33;19.50;;;11.90;99.90;;;;;;5077291;28;20509;-27
2022/10/25 06:05:51;;;;;;;52.28;19.35;;;12.00;99.90;;;;;;5081196;28;20048;-27
2022/10/25 06:08:17;;;;;;;52.33;16.48;;;11.80;99.90;;;;;;5074460;28;20465;-27
2022/10/25 06:10:42;;;;;;;43.67;18.80;;;11.70;99.90;;;;;;5081724;28;20044;-27
2022/10/25 06:13:08;;;;;;;47.13;19.08;;;11.70;99.90;;;;;;5077987;28;20048;-26
2022/10/25 06:15:37;;;;;;;46.45;18.02;;;12.00;99.90;;;;;;5089633;28;20478;-27
2022/10/25 06:18:03;;;;;;;40.83;17.08;;;11.90;99.90;;;;;;5086782;28;20048;-27
2022/10/25 06:20:28;;;;;;;45.88;17.63;;;11.90;99.90;;;;;;5084490;28;20060;-28
2022/10/25 06:22:54;;;;;;;40.83;15.35;;;11.90;99.90;;;;;;5058415;28;21765;-28
2022/10/25 06:25:20;;;;;;;38.17;17.30;;;11.70;99.90;;;;;;5077028;28;20044;-27
2022/10/25 06:27:45;;;;;;;39.75;17.90;;;11.80;99.90;;;;;;5081416;28;20425;-26
2022/10/25 06:30:11;;;;;;;50.63;16.45;;;11.90;99.90;;;;;;5069649;28;20052;-26
2022/10/25 06:32:37;;;;;;;51.58;18.13;;;11.70;99.90;;;;;;5077008;28;20055;-27
2022/10/25 06:35:04;;;;;;;39.33;15.50;;;11.90;99.90;;;;;;5078898;28;20390;-27
2022/10/25 06:37:29;;;;;;;34.22;13.27;;;11.60;99.90;;;;;;5078576;28;20058;-26
2022/10/25 06:39:55;;;;;;;36.78;13.23;;;11.70;99.90;;;;;;5082008;28;20056;-26
2022/10/25 06:42:21;;;;;;;40.33;13.98;;;11.60;99.90;;;;;;5074036;28;20062;-27
2022/10/25 06:44:46;;;;;;;49.08;14.75;;;11.70;99.90;;;;;;5071209;28;20505;-27
2022/10/25 06:47:12;;;;;;;40.58;14.30;;;11.60;99.90;;;;;;5081877;28;20069;-27
2022/10/25 06:49:38;;;;;;;51.70;14.60;;;11.80;99.90;;;;;;5076259;28;20041;-27
2022/10/25 06:52:03;;;;;;;31.05;12.23;;;11.90;99.90;;;;;;5058317;28;20517;-26
2022/10/25 06:54:29;;;;;;;35.25;12.05;;;11.90;99.90;;;;;;5083399;28;20546;-28
2022/10/25 06:56:56;;;;;;;28.60;11.23;;;11.60;99.90;;;;;;5061019;28;20044;-26
2022/10/25 06:59:24;;;;;;;50.53;12.63;;;11.80;99.90;;;;;;5072858;28;20542;-26
2022/10/25 07:01:51;;;;;;;45.85;12.30;;;11.70;99.90;;;;;;5080007;28;20126;-26
2022/10/25 07:04:16;;;;;;;39.75;13.25;;;11.70;99.90;;;;;;5076718;28;20049;-26
2022/10/25 07:06:42;;;;;;;28.50;11.05;;;11.70;99.90;;;;;;5083402;28;20398;-27
2022/10/25 07:09:09;;;;;;;38.28;11.50;;;11.60;99.90;;;;;;5087228;28;20079;-26
2022/10/25 07:11:35;;;;;;;30.05;10.88;;;11.60;99.90;;;;;;5079011;28;20048;-27
2022/10/25 07:14:03;;;;;;;53.40;12.95;;;11.60;99.90;;;;;;5076438;28;20040;-27
2022/10/25 07:16:29;;;;;;;31.60;11.10;;;11.80;99.90;;;;;;5084454;28;20044;-27
2022/10/25 07:18:59;;;;;;;26.98;8.85;;;12.00;99.90;;;;;;5087136;28;20039;-28
2022/10/25 07:21:25;;;;;;;34.90;9.90;;;12.10;99.90;;;;;;5077266;28;20588;-27
2022/10/25 07:23:51;;;;;;;22.98;7.38;;;11.80;99.90;;;;;;5081160;28;20043;-27
2022/10/25 07:26:23;;;;;;;30.00;8.77;;;11.80;99.90;;;;;;5085366;28;20040;-27
2022/10/25 07:28:51;;;;;;;21.23;7.38;;;12.10;99.90;;;;;;5074686;28;20073;-27
2022/10/25 07:31:22;;;;;;;29.70;9.13;;;12.00;99.90;;;;;;5092195;28;20394;-26
2022/10/25 07:33:50;;;;;;;25.23;7.03;;;12.10;99.90;;;;;;5093416;28;20394;-27
2022/10/25 07:36:16;;;;;;;28.88;7.53;;;12.10;99.90;;;;;;5094992;28;20077;-27
2022/10/25 07:38:42;;;;;;;31.88;8.30;;;12.00;99.90;;;;;;5073683;28;20143;-27
2022/10/25 07:41:08;;;;;;;30.75;7.10;;;12.20;99.90;;;;;;5081978;28;20060;-26
2022/10/25 07:43:35;;;;;;;24.73;7.07;;;12.10;99.90;;;;;;5095075;28;20044;-28
2022/10/25 07:46:01;;;;;;;24.95;7.40;;;12.10;99.90;;;;;;5091242;28;20072;-27
2022/10/25 07:48:27;;;;;;;42.72;8.75;;;12.30;99.90;;;;;;5094954;28;20039;-27
2022/10/25 07:50:53;;;;;;;22.88;6.32;;;12.50;99.90;;;;;;5085055;28;20127;-27
2022/10/25 07:53:18;;;;;;;25.90;7.38;;;12.50;99.90;;;;;;5089998;28;20051;-27
2022/10/25 07:55:53;;;;;;;19.13;5.95;;;12.50;99.90;;;;;;5094296;28;20127;-27
2022/10/25 07:58:21;;;;;;;30.58;7.28;;;12.70;99.90;;;;;;5094141;28;20086;-26
2022/10/25 08:00:47;;;;;;;22.48;6.85;;;12.60;99.90;;;;;;5089312;28;20133;-27
2022/10/25 08:03:14;;;;;;;28.05;8.02;;;12.70;99.90;;;;;;5075525;28;20045;-27
2022/10/25 08:05:41;;;;;;;23.17;6.07;;;12.60;99.90;;;;;;5073531;28;20483;-27
2022/10/25 08:08:07;;;;;;;21.92;6.97;;;12.70;99.90;;;;;;5073878;28;20087;-28
2022/10/25 08:10:33;;;;;;;25.63;6.32;;;12.80;99.90;;;;;;5077908;28;20072;-27
2022/10/25 08:12:58;;;;;;;21.92;6.40;;;12.70;99.90;;;;;;5059344;28;20166;-26
2022/10/25 08:15:24;;;;;;;27.38;6.50;;;12.80;99.90;;;;;;5072985;28;20049;-27
2022/10/25 08:18:00;;;;;;;12.07;4.68;;;12.80;99.90;;;;;;5075331;28;20041;-27
2022/10/25 08:20:27;;;;;;;29.77;7.05;;;13.00;99.90;;;;;;5073183;28;20045;-27
2022/10/25 08:22:59;;;;;;;21.45;5.38;;;12.90;99.90;;;;;;5092951;28;20054;-27
2022/10/25 08:25:26;;;;;;;35.08;8.18;;;12.90;99.90;;;;;;5093988;28;20040;-27
2022/10/25 08:27:52;;;;;;;27.17;6.47;;;13.00;99.90;;;;;;5093551;28;20501;-27
2022/10/25 08:30:18;;;;;;;21.98;6.60;;;13.20;99.90;;;;;;5083657;28;20049;-28
2022/10/25 08:32:44;;;;;;;16.70;4.32;;;13.20;99.90;;;;;;5085212;28;20524;-28
2022/10/25 08:35:09;;;;;;;21.23;6.40;;;13.20;99.90;;;;;;5093785;28;20048;-28
2022/10/25 08:37:35;;;;;;;18.42;5.22;;;13.30;99.90;;;;;;5093724;28;20486;-27
2022/10/25 08:40:01;;;;;;;18.00;5.18;;;13.20;99.90;;;;;;5093754;28;20101;-28
2022/10/25 08:42:56;;;;;;;24.50;5.57;;;13.30;99.90;;;;;;5081918;28;20044;-28
2022/10/25 08:45:36;;;;;;;23.02;7.53;;;13.40;99.90;;;;;;5072421;28;20049;-27
2022/10/25 08:48:10;;;;;;;29.83;8.13;;;13.40;99.90;;;;;;5075796;28;20044;-28
2022/10/25 08:50:49;;;;;;;28.33;6.47;;;13.60;99.90;;;;;;5079823;28;20456;-28
2022/10/25 08:53:24;;;;;;;22.67;6.85;;;13.70;99.90;;;;;;5074047;28;20197;-28
2022/10/25 08:55:50;;;;;;;24.20;5.65;;;13.80;99.90;;;;;;5075558;28;20178;-28
2022/10/25 08:58:42;;;;;;;22.90;6.57;;;13.90;99.90;;;;;;5073351;28;20533;-28
2022/10/25 09:01:16;;;;;;;25.48;6.82;;;13.90;99.90;;;;;;5073527;28;20052;-28
2022/10/25 09:03:41;;;;;;;29.38;7.68;;;13.90;99.90;;;;;;5073344;28;20071;-28
2022/10/25 09:06:33;;;;;;;24.77;6.32;;;13.90;99.90;;;;;;5076283;28;20052;-29
2022/10/25 09:09:05;;;;;;;15.00;5.78;;;14.00;99.90;;;;;;5097524;28;20504;-28
2022/10/25 09:11:46;;;;;;;18.85;6.35;;;14.20;99.90;;;;;;5088477;28;20130;-28
2022/10/25 09:14:32;;;;;;;25.15;6.55;;;14.30;99.90;;;;;;5091022;28;20051;-28
2022/10/25 09:17:11;;;;;;;24.00;6.03;;;14.40;99.90;;;;;;5097086;28;20417;-28
2022/10/25 09:19:51;;;;;;;23.38;6.70;;;14.40;99.90;;;;;;5089130;28;20099;-28
2022/10/25 09:22:40;;;;;;;31.15;7.40;;;14.60;99.90;;;;;;5086673;28;20040;-29
2022/10/25 09:25:26;;;;;;;20.25;5.70;;;14.60;99.90;;;;;;5097829;28;20076;-28
2022/10/25 09:28:02;;;;;;;27.05;7.00;;;14.80;99.90;;;;;;5098028;28;20058;-28
2022/10/25 09:30:36;;;;;;;20.02;6.50;;;14.90;99.90;;;;;;5095761;28;20055;-28
2022/10/25 09:33:08;;;;;;;19.80;5.65;;;15.10;99.90;;;;;;5093479;28;20048;-28
2022/10/25 09:35:54;;;;;;;40.33;7.75;;;15.00;99.90;;;;;;5096995;28;20048;-29
2022/10/25 09:38:48;;;;;;;23.13;6.30;;;14.70;99.90;;;;;;5095863;28;20043;-29
2022/10/25 09:41:38;;;;;;;19.83;5.65;;;14.60;99.90;;;;;;5092189;28;20056;-29
2022/10/25 09:44:20;;;;;;;18.27;4.60;;;14.60;99.90;;;;;;5076900;28;20051;-28
2022/10/25 09:47:04;;;;;;;16.50;4.45;;;14.60;99.90;;;;;;5077404;28;20451;-29
2022/10/25 09:49:46;;;;;;;15.52;3.97;;;14.50;99.90;;;;;;5077061;28;20043;-28
2022/10/25 09:52:49;;;;;;;21.98;5.63;;;14.50;99.90;;;;;;5079012;28;20048;-29
2022/10/25 09:55:34;;;;;;;18.90;3.90;;;14.50;99.90;;;;;;5084285;28;20106;-29
2022/10/25 09:58:00;;;;;;;22.05;4.20;;;14.60;99.90;;;;;;5079460;28;20044;-28
2022/10/25 10:00:27;;;;;;;16.25;3.95;;;14.70;99.90;;;;;;5076243;28;20052;-28
2022/10/25 10:02:54;;;;;;;18.23;4.65;;;14.70;99.90;;;;;;5076157;28;20067;-29
2022/10/25 10:05:21;;;;;;;16.38;3.05;;;14.70;99.90;;;;;;5076976;28;20054;-29
2022/10/25 10:07:48;;;;;;;15.90;2.60;;;14.70;99.90;;;;;;5085116;28;20836;-28
2022/10/25 10:10:25;;;;;;;12.25;2.33;;;14.60;99.90;;;;;;5078206;28;20048;-29
2022/10/25 10:13:40;;;;;;;15.10;2.60;;;14.70;99.90;;;;;;5095381;28;20497;-29
2022/10/25 10:16:23;;;;;;;11.35;1.60;;;14.90;99.90;;;;;;5052585;28;20098;-31
2022/10/25 10:18:48;;;;;;;12.50;2.75;;;15.10;99.90;;;;;;5083419;28;20066;-29
2022/10/25 10:21:24;;;;;;;20.92;2.42;;;15.60;99.90;;;;;;5079103;28;20466;-29
2022/10/25 10:23:58;;;;;;;12.20;2.67;;;16.10;99.90;;;;;;5095832;28;20347;-29
2022/10/25 10:26:32;;;;;;;20.02;2.35;;;16.10;99.90;;;;;;5088347;28;20398;-29
2022/10/25 10:29:15;;;;;;;13.13;2.22;;;16.20;99.90;;;;;;5077694;28;20521;-29
2022/10/25 10:31:47;;;;;;;14.05;3.35;;;15.90;99.90;;;;;;5076476;28;20067;-29
2022/10/25 10:34:36;;;;;;;14.77;2.28;;;15.80;99.90;;;;;;5075639;28;20040;-28
2022/10/25 10:37:11;;;;;;;22.48;2.50;;;15.80;99.90;;;;;;5075631;28;20049;-29
2022/10/25 10:39:47;;;;;;;14.63;2.85;;;15.90;99.90;;;;;;5082506;28;20067;-29
2022/10/25 10:42:15;;;;;;;14.05;2.08;;;16.00;99.90;;;;;;5076092;28;20047;-30
2022/10/25 10:44:58;;;;;;;23.42;2.53;;;16.20;99.90;;;;;;5075696;28;20044;-29
2022/10/25 10:47:28;;;;;;;20.13;3.45;;;16.20;99.90;;;;;;5076825;28;20490;-29
2022/10/25 10:49:54;;;;;;;13.65;1.50;;;16.00;99.90;;;;;;5077319;28;20513;-29
2022/10/25 10:52:35;;;;;;;16.30;2.33;;;15.70;99.90;;;;;;5076135;28;20044;-29
2022/10/25 10:55:01;;;;;;;16.17;1.92;;;15.60;99.90;;;;;;5078589;28;20047;-29
2022/10/25 10:57:33;;;;;;;15.35;2.28;;;15.70;99.90;;;;;;5079076;28;20051;-29
2022/10/25 11:00:04;;;;;;;11.25;2.25;;;16.10;99.90;;;;;;5076112;28;20170;-29
2022/10/25 11:02:41;;;;;;;19.95;2.83;;;16.40;99.90;;;;;;5075388;28;20044;-29
2022/10/25 11:05:25;;;;;;;13.68;2.55;;;16.70;99.90;;;;;;5075702;28;20080;-29
2022/10/25 11:07:59;;;;;;;18.55;2.05;;;16.50;99.90;;;;;;5076662;28;20097;-29
2022/10/25 11:10:27;;;;;;;16.10;2.28;;;16.20;99.90;;;;;;5075977;28;20041;-29
2022/10/25 11:13:16;;;;;;;18.77;3.90;;;16.20;99.90;;;;;;5095082;28;20051;-30
2022/10/25 11:15:51;;;;;;;12.38;2.03;;;16.20;77.40;;;;;;5080456;28;20120;-29
2022/10/25 11:18:26;;;;;;;13.77;2.65;;;16.10;99.90;;;;;;5078443;28;20097;-29
2022/10/25 11:21:36;;;;;;;15.70;2.35;;;16.00;97.70;;;;;;5074738;28;20486;-29
2022/10/25 11:24:20;;;;;;;13.88;1.60;;;15.60;99.90;;;;;;5076415;28;20043;-29
2022/10/25 11:26:56;;;;;;;8.98;1.60;;;15.50;99.90;;;;;;5075197;28;20055;-29
2022/10/25 11:29:50;;;;;;;14.23;2.17;;;15.50;99.90;;;;;;5074432;28;20474;-29
2022/10/25 11:32:33;;;;;;;13.63;2.20;;;15.50;99.90;;;;;;5076500;28;20127;-29
2022/10/25 11:34:58;;;;;;;10.32;1.77;;;15.50;99.90;;;;;;5077999;28;20512;-29
2022/10/25 11:37:34;;;;;;;13.07;1.90;;;15.60;99.90;;;;;;5076095;28;20053;-29
2022/10/25 11:40:15;;;;;;;12.73;2.08;;;15.80;99.90;;;;;;5085304;28;20066;-29
2022/10/25 11:42:58;;;;;;;10.85;1.60;;;15.90;99.90;;;;;;5085164;28;20040;-30
2022/10/25 11:45:45;;;;;;;16.92;2.05;;;16.10;99.90;;;;;;5076246;28;20052;-29
2022/10/25 11:48:26;;;;;;;6.22;1.30;;;16.20;7.20;;;;;;5076194;28;20052;-29
2022/10/25 11:51:21;;;;;;;9.48;2.55;;;16.10;30.30;;;;;;5073816;28;20041;-30
2022/10/25 11:54:14;;;;;;;12.77;1.67;;;16.10;1.00;;;;;;5074044;28;20049;-30
2022/10/25 11:57:00;;;;;;;13.52;2.20;;;16.30;1.00;;;;;;5080749;28;20044;-31
2022/10/25 12:00:00;;;;;;;8.23;1.25;;;16.40;1.00;;;;;;5084422;28;20052;-29
2022/10/25 12:03:03;;;;;;;11.35;2.08;;;16.50;1.00;;;;;;5081731;28;20590;-30
2022/10/25 12:06:13;;;;;;;10.27;1.92;;;16.50;1.00;;;;;;5079900;28;20050;-29
2022/10/25 12:09:05;;;;;;;14.30;2.28;;;16.50;1.00;;;;;;5093026;28;20036;-30
2022/10/25 12:11:36;;;;;;;12.35;1.92;;;16.80;1.00;;;;;;5091187;28;20461;-29
2022/10/25 12:14:35;;;;;;;14.10;1.80;;;17.20;99.90;;;;;;5080536;28;20040;-30
2022/10/25 12:17:05;;;;;;;16.00;2.42;;;17.10;1.00;;;;;;5066711;28;20056;-29
2022/10/25 12:19:41;;;;;;;13.88;2.88;;;17.30;99.90;;;;;;5086420;28;20432;-30
2022/10/25 12:22:16;;;;;;;13.90;2.25;;;17.50;1.00;;;;;;5093955;28;20048;-30
2022/10/25 12:25:05;;;;;;;13.57;2.30;;;17.60;1.00;;;;;;5093165;28;20078;-31
2022/10/25 12:27:32;;;;;;;22.73;2.55;;;17.60;99.90;;;;;;5094463;28;20061;-31
2022/10/25 12:30:06;;;;;;;10.52;2.17;;;17.40;99.90;;;;;;5093394;28;20056;-30
2022/10/25 12:33:02;;;;;;;12.18;2.17;;;17.00;84.70;;;;;;5093875;28;20458;-30
2022/10/25 12:35:34;;;;;;;7.80;1.35;;;16.70;56.80;;;;;;5093780;28;20071;-31
2022/10/25 12:38:08;;;;;;;13.43;1.58;;;16.60;1.00;;;;;;5089205;28;20041;-31
2022/10/25 12:40:42;;;;;;;8.43;1.30;;;17.00;99.90;;;;;;5076468;28;20444;-30
2022/10/25 12:43:25;;;;;;;7.70;1.42;;;17.30;1.00;;;;;;5084437;28;20051;-30
2022/10/25 12:46:20;;;;;;;8.98;1.60;;;17.50;99.90;;;;;;5100530;28;20048;-30
2022/10/25 12:49:11;;;;;;;16.00;1.88;;;17.00;99.90;;;;;;5081503;28;20048;-30
2022/10/25 12:52:17;;;;;;;12.38;2.25;;;16.90;36.30;;;;;;5093945;28;20486;-31
2022/10/25 12:55:20;;;;;;;13.73;2.08;;;16.60;99.90;;;;;;5083373;28;20104;-30
2022/10/25 12:58:22;;;;;;;23.88;3.08;;;16.40;99.90;;;;;;5099972;28;20494;-30
2022/10/25 13:01:12;;;;;;;11.52;1.60;;;16.30;99.90;;;;;;5078867;28;20091;-30
2022/10/25 13:04:12;;;;;;;11.38;2.38;;;16.50;99.90;;;;;;5080258;28;20545;-30